Time;durP1;ratioP1;P1;durP2;ratioP2;P2;SDS_P1;SDS_P2;PMS_P1;PMS_P2;Temp;Humidity;BMP_temperature;BMP_pressure;BME280_temperature;BME280_humidity;BME280_pressure;Samples;Min_cycle;Max_cycle;Signal;HPM_P1;HPM_P2
2022/03/13 00:00:46;;;;;;;26.05;17.27;;;7.90;99.90;;;;;;5094025;28;20055;-88
2022/03/13 00:03:13;;;;;;;;;;;7.90;99.90;;;;;;5077689;28;20113;-88
2022/03/13 00:05:41;;;;;;;23.48;15.52;;;7.90;99.90;;;;;;5094224;28;19920;-87
2022/03/13 00:08:31;;;;;;;24.92;15.65;;;7.80;99.90;;;;;;5093885;28;20040;-87
2022/03/13 00:10:59;;;;;;;22.83;15.63;;;7.80;99.90;;;;;;5076857;28;20135;-87
2022/03/13 00:13:30;;;;;;;28.40;16.00;;;7.80;99.90;;;;;;5093679;28;20497;-88
2022/03/13 00:15:57;;;;;;;;;;;7.80;99.90;;;;;;5094449;28;20439;-88
2022/03/13 00:18:23;;;;;;;24.38;15.82;;;7.90;99.90;;;;;;5093890;28;20293;-87
2022/03/13 00:20:51;;;;;;;29.38;16.48;;;7.80;99.90;;;;;;5093643;28;20051;-87
2022/03/13 00:23:18;;;;;;;24.73;16.08;;;7.80;99.90;;;;;;5093657;28;20075;-87
2022/03/13 00:25:43;;;;;;;24.05;16.05;;;7.80;99.90;;;;;;5076656;28;20413;-87
2022/03/13 00:28:11;;;;;;;22.45;15.27;;;7.80;99.90;;;;;;5092861;28;20060;-87
2022/03/13 00:30:39;;;;;;;25.42;15.50;;;7.80;99.90;;;;;;5076918;28;20055;-87
2022/03/13 00:33:06;;;;;;;26.60;16.25;;;7.80;99.90;;;;;;5076666;28;20045;-87
2022/03/13 00:35:31;;;;;;;23.17;15.10;;;7.80;99.90;;;;;;5093419;28;20055;-87
2022/03/13 00:37:58;;;;;;;23.20;15.52;;;7.80;99.90;;;;;;5076466;28;20052;-87
2022/03/13 00:40:25;;;;;;;23.73;16.27;;;8.00;99.90;;;;;;5093407;28;20040;-87
2022/03/13 00:42:51;;;;;;;21.60;15.23;;;7.90;99.90;;;;;;5076167;28;20065;-88
2022/03/13 00:45:17;;;;;;;24.17;14.77;;;7.80;99.90;;;;;;5093506;28;20084;-88
2022/03/13 00:47:42;;;;;;;24.05;15.57;;;7.90;99.90;;;;;;5093042;28;20076;-87
2022/03/13 00:50:08;;;;;;;29.75;16.25;;;7.90;99.90;;;;;;5093195;28;20052;-88
2022/03/13 00:52:34;;;;;;;21.40;15.35;;;7.90;99.90;;;;;;5076313;28;20402;-88
2022/03/13 00:55:00;;;;;;;23.85;15.40;;;7.90;99.90;;;;;;5092653;28;20044;-87
2022/03/13 00:57:29;;;;;;;25.23;14.25;;;7.80;99.90;;;;;;5092772;28;20036;-89
2022/03/13 00:59:54;;;;;;;24.00;15.25;;;7.90;99.90;;;;;;5076016;28;20066;-88
2022/03/13 01:02:20;;;;;;;24.73;15.32;;;7.90;99.90;;;;;;5093050;28;20131;-87
2022/03/13 01:04:46;;;;;;;20.50;13.93;;;7.90;99.90;;;;;;5075988;28;20135;-88
2022/03/13 01:07:14;;;;;;;21.00;14.55;;;7.90;99.90;;;;;;5075828;28;20512;-87
2022/03/13 01:09:40;;;;;;;20.52;13.95;;;7.80;99.90;;;;;;5092409;28;20105;-88
2022/03/13 01:12:06;;;;;;;24.77;14.98;;;7.90;99.90;;;;;;5092803;28;20055;-88
2022/03/13 01:14:33;;;;;;;20.75;14.75;;;7.80;99.90;;;;;;5092654;28;20052;-88
2022/03/13 01:17:05;;;;;;;24.20;14.30;;;7.80;99.90;;;;;;5092733;28;20048;-88
2022/03/13 01:19:31;;;;;;;23.50;15.40;;;7.90;99.90;;;;;;5075598;28;20129;-87
2022/03/13 01:21:57;;;;;;;23.17;13.82;;;7.80;99.90;;;;;;5092454;28;20123;-87
2022/03/13 01:24:31;;;;;;;22.08;14.52;;;7.90;99.90;;;;;;5075363;28;20086;-87
2022/03/13 01:27:01;;;;;;;21.65;14.13;;;7.80;99.90;;;;;;5093744;28;20434;-89
2022/03/13 01:29:28;;;;;;;19.38;13.57;;;7.80;99.90;;;;;;5092901;28;20059;-88
2022/03/13 01:31:54;;;;;;;20.95;14.45;;;8.00;99.90;;;;;;5092456;28;20047;-89
2022/03/13 01:34:35;;;;;;;22.65;14.00;;;7.70;99.90;;;;;;5092618;28;20044;-88
2022/03/13 01:37:08;;;;;;;23.42;13.68;;;7.90;99.90;;;;;;5074729;28;20056;-88
2022/03/13 01:39:33;;;;;;;24.27;14.57;;;7.90;99.90;;;;;;5091928;28;20055;-88
2022/03/13 01:41:59;;;;;;;19.70;13.85;;;8.30;99.90;;;;;;5091946;28;20346;-88
2022/03/13 01:44:25;;;;;;;21.30;13.77;;;8.10;99.90;;;;;;5092237;28;20062;-89
2022/03/13 01:46:51;;;;;;;19.05;13.55;;;8.00;99.90;;;;;;5092161;28;20040;-87
2022/03/13 01:49:17;;;;;;;18.17;12.90;;;8.10;99.90;;;;;;5091596;28;20160;-88
2022/03/13 01:51:43;;;;;;;20.75;13.77;;;8.10;99.90;;;;;;5075118;28;20046;-87
2022/03/13 01:54:11;;;;;;;23.33;13.63;;;8.10;99.90;;;;;;5091892;28;20419;-89
2022/03/13 01:56:38;;;;;;;19.83;13.82;;;8.10;99.90;;;;;;5092052;28;20048;-89
2022/03/13 01:59:06;;;;;;;20.92;13.90;;;8.20;99.90;;;;;;5091629;28;20494;-88
2022/03/13 02:01:32;;;;;;;22.95;14.27;;;8.20;99.90;;;;;;5074838;28;20493;-87
2022/03/13 02:03:58;;;;;;;21.75;14.13;;;8.20;99.90;;;;;;5074944;28;20055;-87
2022/03/13 02:06:24;;;;;;;20.30;13.70;;;8.20;99.90;;;;;;5091674;28;20044;-87
2022/03/13 02:08:51;;;;;;;20.35;14.07;;;8.30;99.90;;;;;;5091343;28;20039;-88
2022/03/13 02:11:19;;;;;;;24.00;14.52;;;8.30;99.90;;;;;;5075031;28;20483;-87
2022/03/13 02:13:50;;;;;;;24.15;14.23;;;8.60;99.90;;;;;;5091857;28;20083;-87
2022/03/13 02:16:18;;;;;;;22.30;14.55;;;8.40;99.90;;;;;;5091673;28;20063;-88
2022/03/13 02:18:53;;;;;;;23.25;14.48;;;8.30;99.90;;;;;;5091744;28;20105;-87
2022/03/13 02:21:24;;;;;;;19.95;13.25;;;8.30;99.90;;;;;;5091574;28;20412;-87
2022/03/13 02:23:50;;;;;;;20.92;13.75;;;8.30;99.90;;;;;;5074519;28;20048;-87
2022/03/13 02:26:15;;;;;;;21.70;13.85;;;8.40;99.90;;;;;;5091777;28;20059;-87
2022/03/13 02:28:53;;;;;;;20.23;13.77;;;8.20;99.90;;;;;;5091370;28;20056;-88
2022/03/13 02:31:32;;;;;;;20.67;13.45;;;8.50;99.90;;;;;;5091488;28;20127;-87
2022/03/13 02:33:58;;;;;;;20.23;13.77;;;8.30;99.90;;;;;;5074140;28;20060;-87
2022/03/13 02:36:36;;;;;;;20.35;14.23;;;8.20;99.90;;;;;;5074472;28;20503;-87
2022/03/13 02:39:04;;;;;;;24.25;14.00;;;8.30;99.90;;;;;;5091528;28;20471;-87
2022/03/13 02:41:31;;;;;;;19.50;13.45;;;8.30;99.90;;;;;;5091503;28;20128;-87
2022/03/13 02:43:57;;;;;;;19.40;14.00;;;8.30;99.90;;;;;;5091423;28;20529;-87
2022/03/13 02:46:44;;;;;;;19.52;13.65;;;8.20;99.90;;;;;;5074668;28;20476;-88
2022/03/13 02:49:10;;;;;;;20.80;13.40;;;8.20;99.90;;;;;;5074638;28;20127;-88
2022/03/13 02:51:36;;;;;;;22.35;13.55;;;8.20;99.90;;;;;;5078849;28;20469;-87
2022/03/13 02:54:02;;;;;;;20.83;12.98;;;8.20;99.90;;;;;;5095514;28;20062;-88
2022/03/13 02:56:28;;;;;;;21.05;14.05;;;8.20;99.90;;;;;;5095348;28;20044;-87
2022/03/13 02:58:54;;;;;;;21.10;13.95;;;8.10;99.90;;;;;;5095224;28;20051;-87
2022/03/13 03:01:21;;;;;;;21.63;13.85;;;8.10;99.90;;;;;;5078144;28;20539;-87
2022/03/13 03:03:48;;;;;;;23.83;14.05;;;8.00;99.90;;;;;;5078139;28;20055;-88
2022/03/13 03:06:14;;;;;;;22.00;14.45;;;8.00;99.90;;;;;;5078866;28;20062;-87
2022/03/13 03:08:40;;;;;;;22.65;14.23;;;7.90;99.90;;;;;;5078152;28;20411;-88
2022/03/13 03:11:06;;;;;;;21.55;14.00;;;7.90;99.90;;;;;;5095118;28;20051;-87
2022/03/13 03:13:32;;;;;;;20.45;13.75;;;7.80;99.90;;;;;;5078176;28;20056;-88
2022/03/13 03:15:58;;;;;;;23.20;14.57;;;7.80;99.90;;;;;;5077799;28;20513;-87
2022/03/13 03:18:25;;;;;;;20.73;14.80;;;7.60;99.90;;;;;;5077800;28;20052;-87
2022/03/13 03:20:51;;;;;;;22.55;13.95;;;7.50;99.90;;;;;;5077863;28;20036;-87
2022/03/13 03:23:17;;;;;;;24.33;14.48;;;7.50;99.90;;;;;;5078085;28;20040;-88
2022/03/13 03:25:42;;;;;;;23.70;14.60;;;7.50;99.90;;;;;;5078110;28;20409;-88
2022/03/13 03:28:08;;;;;;;24.13;14.52;;;7.40;99.90;;;;;;5094313;28;20087;-87
2022/03/13 03:30:34;;;;;;;21.50;14.70;;;7.30;99.90;;;;;;5094685;28;20059;-87
2022/03/13 03:33:04;;;;;;;32.85;14.43;;;7.30;99.90;;;;;;5094354;28;20044;-88
2022/03/13 03:35:30;;;;;;;20.50;14.68;;;7.20;99.90;;;;;;5094756;28;20045;-87
2022/03/13 03:37:57;;;;;;;21.42;14.23;;;7.20;99.90;;;;;;5094411;28;20489;-87
2022/03/13 03:40:29;;;;;;;20.92;14.05;;;7.10;99.90;;;;;;5077703;28;20557;-87
2022/03/13 03:42:59;;;;;;;22.48;14.30;;;7.20;99.90;;;;;;5094354;28;20044;-87
2022/03/13 03:45:25;;;;;;;21.65;13.35;;;7.10;99.90;;;;;;5094356;28;20506;-87
2022/03/13 03:47:51;;;;;;;20.67;13.00;;;7.10;99.90;;;;;;5077578;28;20040;-87
2022/03/13 03:50:18;;;;;;;22.55;14.35;;;7.20;99.90;;;;;;5077580;28;20047;-87
2022/03/13 03:52:46;;;;;;;21.77;13.02;;;7.10;99.90;;;;;;5094431;28;20051;-87
2022/03/13 03:55:14;;;;;;;20.33;14.20;;;7.10;99.90;;;;;;5077434;28;20051;-88
2022/03/13 03:57:40;;;;;;;23.45;14.70;;;7.10;99.90;;;;;;5077215;28;20131;-87
2022/03/13 04:00:07;;;;;;;24.73;14.52;;;7.10;99.90;;;;;;5093762;28;20040;-88
2022/03/13 04:02:33;;;;;;;24.60;13.27;;;7.10;99.90;;;;;;5093928;28;20067;-87
2022/03/13 04:05:00;;;;;;;22.27;13.95;;;7.10;99.90;;;;;;5093955;28;20051;-88
2022/03/13 04:07:25;;;;;;;23.50;14.52;;;7.30;99.90;;;;;;5094109;28;20044;-88
2022/03/13 04:09:51;;;;;;;22.88;14.38;;;7.10;99.90;;;;;;5093707;28;20412;-87
2022/03/13 04:12:17;;;;;;;23.10;13.65;;;7.20;99.90;;;;;;5094006;28;20524;-87
2022/03/13 04:14:43;;;;;;;21.13;13.30;;;7.10;99.90;;;;;;5094027;28;20048;-87
2022/03/13 04:17:09;;;;;;;23.90;15.00;;;7.20;99.90;;;;;;5093460;28;20039;-87
2022/03/13 04:19:35;;;;;;;23.65;14.27;;;7.20;99.90;;;;;;5094982;28;20496;-87
2022/03/13 04:22:01;;;;;;;21.80;13.75;;;7.20;99.90;;;;;;5077023;28;20412;-87
2022/03/13 04:24:30;;;;;;;25.55;14.48;;;7.20;99.90;;;;;;5093484;28;20087;-87
2022/03/13 04:26:56;;;;;;;20.55;13.38;;;7.20;99.90;;;;;;5093585;28;20059;-87
2022/03/13 04:29:23;;;;;;;23.33;14.73;;;7.20;99.90;;;;;;5092976;28;20051;-87
2022/03/13 04:31:50;;;;;;;25.80;14.93;;;7.30;99.90;;;;;;5093313;28;20044;-87
2022/03/13 04:34:16;;;;;;;23.73;14.65;;;7.30;99.90;;;;;;5093478;28;20047;-87
2022/03/13 04:36:43;;;;;;;23.65;15.13;;;7.10;99.90;;;;;;5093535;28;20397;-88
2022/03/13 04:39:09;;;;;;;23.35;14.65;;;7.30;99.90;;;;;;5093497;28;20044;-88
2022/03/13 04:41:35;;;;;;;23.67;15.63;;;7.00;99.90;;;;;;5076459;28;20055;-88
2022/03/13 04:44:01;;;;;;;19.88;14.55;;;7.00;99.90;;;;;;5076339;28;20052;-88
2022/03/13 04:46:27;;;;;;;23.88;16.00;;;7.10;99.90;;;;;;5076143;28;20044;-87
2022/03/13 04:48:53;;;;;;;23.00;15.35;;;6.80;99.90;;;;;;5093124;28;20047;-87
2022/03/13 04:51:19;;;;;;;24.88;16.52;;;6.80;99.90;;;;;;5093312;28;20432;-87
2022/03/13 04:53:45;;;;;;;23.95;15.60;;;6.70;99.90;;;;;;5076520;28;20048;-88
2022/03/13 04:56:12;;;;;;;24.38;15.93;;;6.60;99.90;;;;;;5092865;28;20131;-88
2022/03/13 04:58:38;;;;;;;26.73;16.17;;;6.60;99.90;;;;;;5093209;28;20101;-88
2022/03/13 05:01:03;;;;;;;23.80;15.43;;;6.50;99.90;;;;;;5092875;28;20489;-88
2022/03/13 05:03:33;;;;;;;24.10;15.70;;;6.40;99.90;;;;;;5076119;28;20056;-88
2022/03/13 05:05:59;;;;;;;25.17;15.73;;;6.40;99.90;;;;;;5076059;28;20044;-88
2022/03/13 05:08:26;;;;;;;23.42;15.40;;;6.30;99.90;;;;;;5092884;28;20118;-89
2022/03/13 05:10:52;;;;;;;26.30;15.93;;;6.30;99.90;;;;;;5092753;28;20126;-88
2022/03/13 05:13:19;;;;;;;22.67;15.15;;;6.30;99.90;;;;;;5091829;28;20090;-88
2022/03/13 05:15:46;;;;;;;24.35;15.45;;;6.20;99.90;;;;;;5075579;28;20100;-88
2022/03/13 05:18:13;;;;;;;24.85;15.60;;;6.30;99.90;;;;;;5075809;28;20048;-87
2022/03/13 05:20:40;;;;;;;24.85;16.30;;;6.20;99.90;;;;;;5075781;28;20044;-88
2022/03/13 05:23:10;;;;;;;26.15;16.50;;;6.20;99.90;;;;;;5075744;28;20047;-88
2022/03/13 05:25:37;;;;;;;22.48;15.07;;;6.20;99.90;;;;;;5092634;28;20048;-88
2022/03/13 05:28:04;;;;;;;25.55;16.80;;;6.20;99.90;;;;;;5075131;28;20401;-88
2022/03/13 05:30:30;;;;;;;24.23;15.10;;;6.20;99.90;;;;;;5075409;28;20052;-88
2022/03/13 05:32:56;;;;;;;24.75;15.55;;;6.20;99.90;;;;;;5092153;28;20499;-88
2022/03/13 05:35:23;;;;;;;26.10;16.63;;;6.20;99.90;;;;;;5092323;28;20044;-87
2022/03/13 05:37:49;;;;;;;25.02;15.52;;;6.20;99.90;;;;;;5092185;28;20044;-88
2022/03/13 05:40:16;;;;;;;25.55;15.85;;;6.40;99.90;;;;;;5092307;28;20062;-88
2022/03/13 05:42:49;;;;;;;26.40;16.40;;;6.10;99.90;;;;;;5075286;28;20135;-88
2022/03/13 05:45:16;;;;;;;25.40;16.33;;;6.00;99.90;;;;;;5075142;28;20043;-87
2022/03/13 05:47:50;;;;;;;22.58;15.88;;;5.90;99.90;;;;;;5075481;28;20040;-88
2022/03/13 05:50:17;;;;;;;27.08;16.60;;;5.90;99.90;;;;;;5092168;28;20048;-88
2022/03/13 05:52:45;;;;;;;24.77;15.85;;;5.90;99.90;;;;;;5075413;28;20052;-88
2022/03/13 05:55:11;;;;;;;25.35;15.93;;;6.00;99.90;;;;;;5092381;28;20055;-88
2022/03/13 05:57:38;;;;;;;23.63;16.27;;;6.10;99.90;;;;;;5091464;28;20052;-88
2022/03/13 06:00:10;;;;;;;26.25;15.77;;;5.80;99.90;;;;;;5091655;28;20054;-88
2022/03/13 06:02:40;;;;;;;28.00;15.98;;;5.80;99.90;;;;;;5091850;28;20109;-88
2022/03/13 06:05:09;;;;;;;25.73;16.35;;;5.70;99.90;;;;;;5091936;28;20124;-88
2022/03/13 06:07:36;;;;;;;24.08;15.50;;;5.70;99.90;;;;;;5074653;28;20556;-87
2022/03/13 06:10:04;;;;;;;24.48;16.92;;;5.70;99.90;;;;;;5091758;28;20055;-88
2022/03/13 06:12:31;;;;;;;26.88;15.60;;;5.70;99.90;;;;;;5091510;28;20112;-88
2022/03/13 06:14:57;;;;;;;25.77;16.38;;;5.70;99.90;;;;;;5091798;28;20458;-88
2022/03/13 06:17:24;;;;;;;23.25;15.57;;;5.70;99.90;;;;;;5075181;28;20052;-88
2022/03/13 06:19:50;;;;;;;21.75;15.18;;;5.70;99.90;;;;;;5091773;28;20051;-88
2022/03/13 06:22:18;;;;;;;25.42;15.82;;;6.00;99.90;;;;;;5091725;28;20091;-88
2022/03/13 06:24:44;;;;;;;25.45;15.90;;;5.80;99.90;;;;;;5091352;28;20047;-88
2022/03/13 06:27:10;;;;;;;26.20;15.23;;;5.80;99.90;;;;;;5091353;28;20048;-87
2022/03/13 06:29:37;;;;;;;21.95;15.13;;;5.90;99.90;;;;;;5091272;28;20087;-88
2022/03/13 06:32:03;;;;;;;24.60;16.38;;;5.90;99.90;;;;;;5091575;28;20048;-88
2022/03/13 06:34:29;;;;;;;26.02;15.55;;;6.00;99.90;;;;;;5067020;28;20048;-88
2022/03/13 06:36:55;;;;;;;22.23;14.48;;;6.10;99.90;;;;;;5091270;28;20393;-87
2022/03/13 06:39:21;;;;;;;22.13;14.40;;;6.20;99.90;;;;;;5074236;28;20044;-88
2022/03/13 06:41:47;;;;;;;23.23;14.10;;;6.50;99.90;;;;;;5074349;28;20044;-87
2022/03/13 06:44:13;;;;;;;20.90;14.60;;;6.40;99.90;;;;;;5090895;28;20575;-88
2022/03/13 06:46:39;;;;;;;22.70;14.20;;;6.40;99.90;;;;;;5094564;28;20119;-88
2022/03/13 06:49:05;;;;;;;23.90;14.73;;;6.60;99.90;;;;;;5090749;28;20060;-88
2022/03/13 06:51:31;;;;;;;21.50;14.18;;;6.60;99.90;;;;;;5074360;28;20086;-89
2022/03/13 06:53:57;;;;;;;23.00;14.95;;;7.00;99.90;;;;;;5078948;28;20044;-88
2022/03/13 06:56:23;;;;;;;19.83;14.02;;;7.00;99.90;;;;;;5061859;28;20127;-87
2022/03/13 06:58:49;;;;;;;21.40;13.63;;;6.80;99.90;;;;;;5068510;28;20131;-88
2022/03/13 07:01:14;;;;;;;21.45;13.43;;;6.90;99.90;;;;;;5082464;28;20036;-88
2022/03/13 07:03:40;;;;;;;20.15;13.13;;;7.00;99.90;;;;;;5096510;28;20079;-88
2022/03/13 07:06:06;;;;;;;23.88;14.48;;;7.10;99.90;;;;;;5079081;28;20072;-87
2022/03/13 07:08:34;;;;;;;18.92;13.20;;;7.20;99.90;;;;;;5081316;28;20474;-88
2022/03/13 07:11:02;;;;;;;20.08;12.77;;;7.30;99.90;;;;;;5098647;28;20401;-91
2022/03/13 07:13:33;;;;;;;20.83;13.43;;;7.40;99.90;;;;;;5086698;28;20060;-88
2022/03/13 07:16:01;;;;;;;21.67;12.80;;;7.50;99.90;;;;;;5054120;28;20045;-87
2022/03/13 07:18:27;;;;;;;19.02;12.48;;;7.60;99.90;;;;;;5070955;28;20048;-88
2022/03/13 07:20:53;;;;;;;20.02;12.57;;;7.70;99.90;;;;;;5070838;28;20045;-88
2022/03/13 07:23:19;;;;;;;19.80;12.35;;;7.80;99.90;;;;;;5070865;28;20044;-88
2022/03/13 07:25:44;;;;;;;19.00;13.32;;;7.90;99.90;;;;;;5054054;28;20049;-88
2022/03/13 07:28:10;;;;;;;20.85;12.68;;;8.10;99.90;;;;;;5053553;28;20192;-89
2022/03/13 07:30:36;;;;;;;20.45;13.23;;;8.00;99.90;;;;;;5070886;28;20056;-87
2022/03/13 07:33:02;;;;;;;16.15;12.20;;;8.20;99.90;;;;;;5070868;28;20523;-88
2022/03/13 07:35:27;;;;;;;17.65;12.50;;;8.30;99.90;;;;;;5071437;28;20120;-90
2022/03/13 07:37:53;;;;;;;19.85;12.45;;;8.30;99.90;;;;;;5074378;28;20398;-89
2022/03/13 07:40:19;;;;;;;18.52;12.85;;;8.40;99.90;;;;;;5074155;28;20053;-89
2022/03/13 07:42:44;;;;;;;19.38;12.68;;;8.50;99.90;;;;;;5074146;28;20051;-89
2022/03/13 07:45:11;;;;;;;17.77;12.60;;;8.60;99.90;;;;;;5074085;28;20444;-89
2022/03/13 07:47:37;;;;;;;20.30;13.02;;;8.70;99.90;;;;;;5057569;28;20139;-89
2022/03/13 07:50:03;;;;;;;18.85;11.63;;;8.80;99.90;;;;;;5074059;28;20087;-90
2022/03/13 07:52:29;;;;;;;21.55;13.23;;;8.80;99.90;;;;;;5057323;28;20048;-90
2022/03/13 07:54:54;;;;;;;19.27;12.85;;;9.00;99.90;;;;;;5057686;28;20444;-90
2022/03/13 07:57:20;;;;;;;17.60;12.15;;;9.10;99.90;;;;;;5073563;28;20485;-89
2022/03/13 07:59:47;;;;;;;21.27;12.98;;;9.30;99.90;;;;;;5056971;28;20055;-89
2022/03/13 08:02:14;;;;;;;18.67;12.40;;;9.50;99.90;;;;;;5057400;28;20509;-89
2022/03/13 08:04:41;;;;;;;18.00;12.40;;;9.60;99.90;;;;;;5073872;28;20081;-89
2022/03/13 08:07:06;;;;;;;20.02;12.82;;;9.60;99.90;;;;;;5073674;28;20050;-90
2022/03/13 08:09:34;;;;;;;19.98;12.70;;;9.50;99.90;;;;;;5056731;28;20049;-86
2022/03/13 08:12:00;;;;;;;18.25;12.60;;;9.50;99.90;;;;;;5074624;28;20091;-89
2022/03/13 08:14:26;;;;;;;18.30;12.45;;;9.40;99.90;;;;;;5073531;28;20056;-89
2022/03/13 08:16:52;;;;;;;18.38;12.45;;;9.50;99.90;;;;;;5056835;28;20045;-89
2022/03/13 08:19:18;;;;;;;18.23;12.27;;;9.40;99.90;;;;;;5073654;28;20041;-90
2022/03/13 08:21:44;;;;;;;22.40;12.75;;;9.50;99.90;;;;;;5073500;28;20417;-89
2022/03/13 08:24:10;;;;;;;20.35;11.32;;;9.60;99.90;;;;;;5073843;28;20127;-88
2022/03/13 08:26:40;;;;;;;18.63;12.25;;;9.70;99.90;;;;;;5073416;28;20049;-89
2022/03/13 08:29:10;;;;;;;20.00;11.38;;;9.80;99.90;;;;;;5073025;28;20061;-89
2022/03/13 08:31:36;;;;;;;18.80;11.55;;;10.20;99.80;;;;;;5073488;28;20063;-89
2022/03/13 08:34:07;;;;;;;22.80;12.00;;;10.00;99.10;;;;;;5073401;28;20044;-89
2022/03/13 08:36:38;;;;;;;17.30;11.73;;;10.00;97.80;;;;;;5073286;28;20131;-88
2022/03/13 08:39:04;;;;;;;20.55;12.25;;;9.90;98.10;;;;;;5056236;28;20048;-87
2022/03/13 08:41:30;;;;;;;18.17;11.68;;;9.90;98.00;;;;;;5073119;28;20045;-88
2022/03/13 08:43:56;;;;;;;18.05;11.35;;;10.00;97.50;;;;;;5073005;28;20052;-88
2022/03/13 08:46:22;;;;;;;16.08;11.43;;;10.00;96.50;;;;;;5073112;28;20052;-87
2022/03/13 08:48:49;;;;;;;18.10;11.52;;;10.10;94.90;;;;;;5072778;28;20489;-87
2022/03/13 08:51:15;;;;;;;19.52;12.18;;;10.20;93.80;;;;;;5056606;28;20071;-87
2022/03/13 08:53:42;;;;;;;16.55;11.60;;;10.50;93.40;;;;;;5073124;28;20128;-87
2022/03/13 08:56:08;;;;;;;16.55;11.40;;;10.40;92.10;;;;;;5072613;28;20486;-88
2022/03/13 08:58:33;;;;;;;14.98;11.10;;;10.60;91.20;;;;;;5056093;28;20147;-88
2022/03/13 09:01:00;;;;;;;15.73;11.27;;;10.70;88.90;;;;;;5073118;28;20139;-87
2022/03/13 09:03:26;;;;;;;18.42;11.88;;;10.70;86.50;;;;;;5072778;28;20531;-87
2022/03/13 09:05:54;;;;;;;16.17;11.50;;;10.90;85.70;;;;;;5056383;28;20406;-87
2022/03/13 09:08:20;;;;;;;18.60;11.52;;;11.00;82.80;;;;;;5072462;28;20041;-87
2022/03/13 09:10:46;;;;;;;15.95;11.60;;;11.10;83.40;;;;;;5072561;28;20091;-88
2022/03/13 09:13:13;;;;;;;19.67;11.77;;;11.30;86.70;;;;;;5072291;28;20372;-89
2022/03/13 09:15:39;;;;;;;20.52;11.60;;;12.00;81.90;;;;;;5056185;28;20063;-88
2022/03/13 09:18:06;;;;;;;16.33;11.45;;;13.10;73.70;;;;;;5072434;28;20086;-88
2022/03/13 09:20:32;;;;;;;15.73;10.73;;;14.20;67.60;;;;;;5055670;28;20490;-88
2022/03/13 09:22:57;;;;;;;17.27;11.60;;;15.00;63.10;;;;;;5072291;28;20054;-88
2022/03/13 09:25:23;;;;;;;19.17;11.75;;;15.80;61.20;;;;;;5072259;28;20161;-88
2022/03/13 09:27:49;;;;;;;16.33;11.25;;;16.50;58.20;;;;;;5055334;28;20078;-87
2022/03/13 09:30:15;;;;;;;18.48;11.73;;;17.10;56.30;;;;;;5073508;28;20052;-88
2022/03/13 09:32:41;;;;;;;15.02;11.43;;;17.70;53.70;;;;;;5072362;28;20482;-88
2022/03/13 09:35:08;;;;;;;17.42;10.82;;;18.30;52.40;;;;;;5071994;28;20075;-88
2022/03/13 09:37:34;;;;;;;18.23;11.52;;;18.70;49.90;;;;;;5055748;28;20051;-89
2022/03/13 09:40:00;;;;;;;15.38;10.93;;;19.00;49.10;;;;;;5072072;28;20052;-88
2022/03/13 09:42:25;;;;;;;15.75;10.95;;;19.30;48.50;;;;;;5071795;28;20052;-89
2022/03/13 09:44:51;;;;;;;14.85;10.85;;;19.70;47.60;;;;;;5055148;28;20049;-88
2022/03/13 09:47:17;;;;;;;14.27;11.65;;;19.90;46.10;;;;;;5072036;28;20059;-88
2022/03/13 09:49:43;;;;;;;15.45;11.43;;;20.00;45.10;;;;;;5054902;28;20135;-88
2022/03/13 09:52:09;;;;;;;15.63;11.70;;;20.30;45.00;;;;;;5071768;28;20048;-88
2022/03/13 09:54:35;;;;;;;14.27;11.45;;;20.80;44.20;;;;;;5071459;28;20048;-88
2022/03/13 09:57:02;;;;;;;18.80;11.55;;;21.20;43.20;;;;;;5071679;28;20044;-87
2022/03/13 09:59:28;;;;;;;19.10;11.75;;;21.40;42.40;;;;;;5071221;28;20382;-89
2022/03/13 10:01:54;;;;;;;16.10;11.75;;;21.40;41.50;;;;;;5071832;28;20139;-87
2022/03/13 10:04:20;;;;;;;14.23;10.45;;;21.50;41.60;;;;;;5071735;28;20085;-89
2022/03/13 10:07:07;;;;;;;15.93;11.77;;;21.80;40.60;;;;;;5071896;28;20379;-87
2022/03/13 10:09:34;;;;;;;14.80;11.30;;;21.90;39.10;;;;;;5057446;28;20048;-88
2022/03/13 10:12:03;;;;;;;16.48;11.48;;;22.00;39.80;;;;;;5101176;28;20097;-88
2022/03/13 10:14:28;;;;;;;16.23;11.55;;;22.10;39.00;;;;;;5112236;28;20073;-88
2022/03/13 10:16:54;;;;;;;15.63;11.48;;;22.00;39.10;;;;;;5106917;28;20035;-87
2022/03/13 10:19:22;;;;;;;14.32;10.80;;;22.20;39.50;;;;;;5088900;28;20043;-89
2022/03/13 10:22:08;;;;;;;15.77;11.50;;;22.50;39.40;;;;;;5092323;28;20102;-89
2022/03/13 10:24:45;;;;;;;15.13;12.43;;;22.80;37.60;;;;;;5097831;28;20071;-88
2022/03/13 10:27:16;;;;;;;14.73;11.38;;;22.90;38.00;;;;;;5074733;28;20044;-89
2022/03/13 10:29:45;;;;;;;15.25;12.23;;;22.90;37.70;;;;;;5091226;28;20060;-90
2022/03/13 10:32:11;;;;;;;14.32;11.43;;;22.80;37.80;;;;;;5074359;28;20045;-89
2022/03/13 10:34:37;;;;;;;18.90;13.02;;;23.10;37.80;;;;;;5091676;28;20044;-89
2022/03/13 10:37:03;;;;;;;18.15;12.43;;;23.30;37.60;;;;;;5091216;28;20501;-90
2022/03/13 10:39:30;;;;;;;15.32;11.73;;;23.50;37.50;;;;;;5074535;28;20489;-90
2022/03/13 10:42:01;;;;;;;15.90;12.60;;;23.90;36.90;;;;;;5074812;28;20576;-90
2022/03/13 10:44:29;;;;;;;14.35;11.57;;;24.10;36.60;;;;;;5074914;28;20135;-90
2022/03/13 10:47:01;;;;;;;16.63;12.25;;;24.30;36.40;;;;;;5091659;28;20055;-90
2022/03/13 10:49:45;;;;;;;17.08;12.77;;;24.30;36.20;;;;;;5074594;28;20189;-90
2022/03/13 10:52:43;;;;;;;14.20;12.23;;;24.30;35.40;;;;;;5094492;28;20033;-91
2022/03/13 10:55:20;;;;;;;15.18;11.63;;;24.30;35.90;;;;;;5081552;28;20130;-90
2022/03/13 10:57:52;;;;;;;17.42;12.25;;;24.50;36.00;;;;;;5091789;28;20058;-89
2022/03/13 11:00:20;;;;;;;14.68;12.10;;;24.80;35.90;;;;;;5049731;28;20053;-90
2022/03/13 11:02:46;;;;;;;16.02;12.70;;;25.20;36.20;;;;;;5071965;28;20048;-90
2022/03/13 11:05:11;;;;;;;16.30;13.05;;;25.50;35.20;;;;;;5079482;28;20425;-91
2022/03/13 11:07:37;;;;;;;14.50;12.70;;;25.40;34.90;;;;;;5068278;28;20518;-90
2022/03/13 11:10:06;;;;;;;17.70;12.98;;;25.40;35.10;;;;;;5062916;28;20476;-91
2022/03/13 11:12:32;;;;;;;15.77;12.88;;;25.30;34.90;;;;;;5059961;28;20471;-90
2022/03/13 11:15:00;;;;;;;16.35;13.10;;;25.40;34.90;;;;;;5086621;28;20044;-91
2022/03/13 11:17:30;;;;;;;16.35;12.50;;;25.50;34.70;;;;;;5075717;28;20048;-91
2022/03/13 11:19:58;;;;;;;16.92;13.55;;;25.60;34.20;;;;;;5076157;28;20517;-91
2022/03/13 11:22:25;;;;;;;17.52;13.18;;;25.50;34.10;;;;;;5058986;28;20082;-91
2022/03/13 11:25:00;;;;;;;17.40;13.70;;;25.60;34.60;;;;;;5080263;28;20131;-91
2022/03/13 11:27:26;;;;;;;15.93;12.55;;;25.90;34.60;;;;;;5079972;28;20142;-91
2022/03/13 11:29:54;;;;;;;17.77;12.90;;;26.00;34.00;;;;;;5066862;28;20059;-90
2022/03/13 11:32:44;;;;;;;17.45;13.25;;;26.00;34.90;;;;;;5082446;28;20052;-91
2022/03/13 11:35:10;;;;;;;15.20;12.05;;;26.30;33.60;;;;;;5101146;28;20579;-91
2022/03/13 11:37:36;;;;;;;15.32;12.40;;;26.30;33.70;;;;;;5085542;28;20051;-91
2022/03/13 11:40:04;;;;;;;16.70;13.50;;;26.20;33.60;;;;;;5084660;28;20442;-92
2022/03/13 11:42:51;;;;;;;14.93;12.55;;;26.10;33.60;;;;;;5086794;28;20044;-91
2022/03/13 11:45:35;;;;;;;17.95;12.00;;;26.30;33.20;;;;;;5084711;28;20086;-90
2022/03/13 11:48:19;;;;;;;16.88;13.25;;;26.50;33.40;;;;;;5093308;28;20051;-92
2022/03/13 11:50:51;;;;;;;16.73;12.80;;;26.50;32.60;;;;;;5085743;28;20052;-91
2022/03/13 11:53:21;;;;;;;17.95;12.60;;;26.10;33.40;;;;;;5074792;28;20052;-92
2022/03/13 11:56:00;;;;;;;17.25;13.68;;;25.70;34.10;;;;;;5068770;28;20039;-91
2022/03/13 11:58:48;;;;;;;16.98;13.10;;;25.70;33.60;;;;;;5076233;28;20051;-91
2022/03/13 12:01:18;;;;;;;17.85;13.93;;;25.60;34.70;;;;;;5067948;28;20040;-91
2022/03/13 12:04:03;;;;;;;;;;;25.50;34.60;;;;;;5076544;28;20055;-90
2022/03/13 12:06:46;;;;;;;16.90;12.80;;;25.70;35.00;;;;;;5092878;28;19920;-92
2022/03/13 12:09:14;;;;;;;16.02;12.68;;;25.70;34.90;;;;;;5067854;28;20043;-89
2022/03/13 12:11:42;;;;;;;16.00;12.73;;;25.80;35.90;;;;;;5088422;28;20037;-90
2022/03/13 12:14:13;;;;;;;15.15;12.40;;;26.20;35.50;;;;;;5088172;28;20086;-90
2022/03/13 12:16:41;;;;;;;17.73;12.63;;;26.60;35.00;;;;;;5067768;28;20044;-95
2022/03/13 12:19:08;;;;;;;15.45;12.93;;;27.10;34.00;;;;;;5069204;28;20048;-91
2022/03/13 12:21:34;;;;;;;17.13;13.23;;;27.00;34.00;;;;;;5095163;28;20035;-90
2022/03/13 12:24:17;;;;;;;14.38;12.50;;;27.00;33.40;;;;;;5070435;28;20100;-92
2022/03/13 12:26:48;;;;;;;18.42;13.30;;;27.10;33.30;;;;;;5098725;28;20039;-91
2022/03/13 12:29:16;;;;;;;15.80;12.40;;;27.10;33.30;;;;;;5084274;28;20134;-91
2022/03/13 12:31:48;;;;;;;15.98;12.73;;;27.10;34.40;;;;;;5089369;28;20109;-90
2022/03/13 12:34:31;;;;;;;14.30;12.65;;;27.30;33.50;;;;;;5072212;28;20032;-93
2022/03/13 12:37:02;;;;;;;17.95;12.98;;;27.30;32.50;;;;;;5069895;28;20451;-94
2022/03/13 12:39:29;;;;;;;17.00;14.07;;;26.90;33.20;;;;;;5084374;28;20123;-92